sensor_id;sensor_type;location;lat;lon;timestamp;temperature;humidity
28171;DHT22;15458;53.346;-1.688;2023-02-22T00:00:59;7.30;99.90
28171;DHT22;15458;53.346;-1.688;2023-02-22T00:03:29;7.20;99.90
28171;DHT22;15458;53.346;-1.688;2023-02-22T00:06:01;7.30;99.90
28171;DHT22;15458;53.346;-1.688;2023-02-22T00:08:31;7.30;99.90
28171;DHT22;15458;53.346;-1.688;2023-02-22T00:11:04;7.20;99.90
28171;DHT22;15458;53.346;-1.688;2023-02-22T00:13:32;7.20;99.90
28171;DHT22;15458;53.346;-1.688;2023-02-22T00:15:59;7.20;99.90
28171;DHT22;15458;53.346;-1.688;2023-02-22T00:18:28;7.20;99.90
28171;DHT22;15458;53.346;-1.688;2023-02-22T00:20:55;7.20;99.90
28171;DHT22;15458;53.346;-1.688;2023-02-22T00:23:25;7.20;99.90
28171;DHT22;15458;53.346;-1.688;2023-02-22T00:25:53;7.20;99.90
28171;DHT22;15458;53.346;-1.688;2023-02-22T00:28:20;7.20;99.90
28171;DHT22;15458;53.346;-1.688;2023-02-22T00:30:49;7.20;99.90
28171;DHT22;15458;53.346;-1.688;2023-02-22T00:33:15;7.20;99.90
28171;DHT22;15458;53.346;-1.688;2023-02-22T00:35:41;7.30;99.90
28171;DHT22;15458;53.346;-1.688;2023-02-22T00:38:11;7.20;99.90
28171;DHT22;15458;53.346;-1.688;2023-02-22T00:40:37;7.30;99.90
28171;DHT22;15458;53.346;-1.688;2023-02-22T00:43:05;7.30;99.90
28171;DHT22;15458;53.346;-1.688;2023-02-22T00:45:32;7.20;99.90
28171;DHT22;15458;53.346;-1.688;2023-02-22T00:47:58;7.20;99.90
28171;DHT22;15458;53.346;-1.688;2023-02-22T00:50:26;7.30;99.90
28171;DHT22;15458;53.346;-1.688;2023-02-22T00:52:52;7.30;99.90
28171;DHT22;15458;53.346;-1.688;2023-02-22T00:55:27;7.30;99.90
28171;DHT22;15458;53.346;-1.688;2023-02-22T00:57:54;7.30;99.90
28171;DHT22;15458;53.346;-1.688;2023-02-22T01:00:46;7.30;99.90
28171;DHT22;15458;53.346;-1.688;2023-02-22T01:03:14;7.40;99.90
28171;DHT22;15458;53.346;-1.688;2023-02-22T01:05:40;7.40;99.90
28171;DHT22;15458;53.346;-1.688;2023-02-22T01:08:07;7.40;99.90
28171;DHT22;15458;53.346;-1.688;2023-02-22T01:10:34;7.50;99.90
28171;DHT22;15458;53.346;-1.688;2023-02-22T01:13:01;7.40;99.90
28171;DHT22;15458;53.346;-1.688;2023-02-22T01:15:34;7.50;99.90
28171;DHT22;15458;53.346;-1.688;2023-02-22T01:18:01;7.40;99.90
28171;DHT22;15458;53.346;-1.688;2023-02-22T01:20:27;7.50;99.90
28171;DHT22;15458;53.346;-1.688;2023-02-22T01:22:57;7.50;99.90
28171;DHT22;15458;53.346;-1.688;2023-02-22T01:25:26;7.50;99.90
28171;DHT22;15458;53.346;-1.688;2023-02-22T01:27:53;7.50;99.90
28171;DHT22;15458;53.346;-1.688;2023-02-22T01:30:22;7.50;99.90
28171;DHT22;15458;53.346;-1.688;2023-02-22T01:32:48;7.40;99.90
28171;DHT22;15458;53.346;-1.688;2023-02-22T01:35:18;7.40;99.90
28171;DHT22;15458;53.346;-1.688;2023-02-22T01:37:44;7.40;99.90
28171;DHT22;15458;53.346;-1.688;2023-02-22T01:40:16;7.40;99.90
28171;DHT22;15458;53.346;-1.688;2023-02-22T01:42:43;7.30;99.90
28171;DHT22;15458;53.346;-1.688;2023-02-22T01:48:13;7.30;99.90
28171;DHT22;15458;53.346;-1.688;2023-02-22T01:50:54;7.30;99.90
28171;DHT22;15458;53.346;-1.688;2023-02-22T01:53:28;7.30;99.90
28171;DHT22;15458;53.346;-1.688;2023-02-22T01:55:57;7.30;99.90
28171;DHT22;15458;53.346;-1.688;2023-02-22T01:58:24;7.30;99.90
28171;DHT22;15458;53.346;-1.688;2023-02-22T02:00:50;7.30;99.90
28171;DHT22;15458;53.346;-1.688;2023-02-22T02:03:26;7.20;99.90
28171;DHT22;15458;53.346;-1.688;2023-02-22T02:05:55;7.20;99.90
28171;DHT22;15458;53.346;-1.688;2023-02-22T02:08:34;7.10;99.90
28171;DHT22;15458;53.346;-1.688;2023-02-22T02:11:03;7.10;99.90
28171;DHT22;15458;53.346;-1.688;2023-02-22T02:13:29;7.10;99.90
28171;DHT22;15458;53.346;-1.688;2023-02-22T02:15:55;7.00;99.90
28171;DHT22;15458;53.346;-1.688;2023-02-22T02:18:21;7.10;99.90
28171;DHT22;15458;53.346;-1.688;2023-02-22T02:48:34;6.70;99.90
28171;DHT22;15458;53.346;-1.688;2023-02-22T02:51:02;6.70;99.90
28171;DHT22;15458;53.346;-1.688;2023-02-22T02:53:35;6.70;99.90
28171;DHT22;15458;53.346;-1.688;2023-02-22T02:56:02;6.70;99.90
28171;DHT22;15458;53.346;-1.688;2023-02-22T02:58:27;6.70;99.90
28171;DHT22;15458;53.346;-1.688;2023-02-22T03:00:56;6.70;99.90
28171;DHT22;15458;53.346;-1.688;2023-02-22T03:09:34;6.60;99.90
28171;DHT22;15458;53.346;-1.688;2023-02-22T03:17:37;6.60;99.90
28171;DHT22;15458;53.346;-1.688;2023-02-22T03:20:14;6.60;99.90
28171;DHT22;15458;53.346;-1.688;2023-02-22T03:22:56;6.60;99.90
28171;DHT22;15458;53.346;-1.688;2023-02-22T03:25:57;6.60;99.90
28171;DHT22;15458;53.346;-1.688;2023-02-22T03:28:25;6.50;99.90
28171;DHT22;15458;53.346;-1.688;2023-02-22T03:31:21;6.60;99.90
28171;DHT22;15458;53.346;-1.688;2023-02-22T03:33:52;6.50;99.90
28171;DHT22;15458;53.346;-1.688;2023-02-22T03:36:29;6.50;99.90
28171;DHT22;15458;53.346;-1.688;2023-02-22T03:38:58;6.40;99.90
28171;DHT22;15458;53.346;-1.688;2023-02-22T03:41:26;6.40;99.90
28171;DHT22;15458;53.346;-1.688;2023-02-22T03:44:05;6.40;99.90
28171;DHT22;15458;53.346;-1.688;2023-02-22T03:46:33;6.40;99.90
28171;DHT22;15458;53.346;-1.688;2023-02-22T03:49:15;6.40;99.90
28171;DHT22;15458;53.346;-1.688;2023-02-22T03:51:44;6.40;99.90
28171;DHT22;15458;53.346;-1.688;2023-02-22T03:54:11;6.40;99.90
28171;DHT22;15458;53.346;-1.688;2023-02-22T03:57:09;6.40;99.90
28171;DHT22;15458;53.346;-1.688;2023-02-22T03:59:36;6.40;99.90
28171;DHT22;15458;53.346;-1.688;2023-02-22T04:02:02;6.40;99.90
28171;DHT22;15458;53.346;-1.688;2023-02-22T04:04:28;6.40;99.90
28171;DHT22;15458;53.346;-1.688;2023-02-22T04:06:53;6.40;99.90
28171;DHT22;15458;53.346;-1.688;2023-02-22T04:09:19;6.40;99.90
28171;DHT22;15458;53.346;-1.688;2023-02-22T04:11:45;6.40;99.90
28171;DHT22;15458;53.346;-1.688;2023-02-22T04:14:11;6.40;99.90
28171;DHT22;15458;53.346;-1.688;2023-02-22T04:16:37;6.40;99.90
28171;DHT22;15458;53.346;-1.688;2023-02-22T04:19:04;6.40;99.90
28171;DHT22;15458;53.346;-1.688;2023-02-22T04:21:30;6.40;99.90
28171;DHT22;15458;53.346;-1.688;2023-02-22T04:23:57;6.40;99.90
28171;DHT22;15458;53.346;-1.688;2023-02-22T04:26:22;6.40;99.90
28171;DHT22;15458;53.346;-1.688;2023-02-22T04:28:48;6.40;99.90
28171;DHT22;15458;53.346;-1.688;2023-02-22T04:31:15;6.40;99.90
28171;DHT22;15458;53.346;-1.688;2023-02-22T04:33:40;6.40;99.90
28171;DHT22;15458;53.346;-1.688;2023-02-22T04:36:07;6.40;99.90
28171;DHT22;15458;53.346;-1.688;2023-02-22T04:38:33;6.40;99.90
28171;DHT22;15458;53.346;-1.688;2023-02-22T04:40:58;6.40;99.90
28171;DHT22;15458;53.346;-1.688;2023-02-22T04:43:24;6.50;99.90
28171;DHT22;15458;53.346;-1.688;2023-02-22T04:45:50;6.50;99.90
28171;DHT22;15458;53.346;-1.688;2023-02-22T04:48:15;6.50;99.90
28171;DHT22;15458;53.346;-1.688;2023-02-22T04:50:41;6.50;99.90
28171;DHT22;15458;53.346;-1.688;2023-02-22T04:53:07;6.50;99.90
28171;DHT22;15458;53.346;-1.688;2023-02-22T04:55:32;6.50;99.90
28171;DHT22;15458;53.346;-1.688;2023-02-22T04:57:58;6.60;99.90
28171;DHT22;15458;53.346;-1.688;2023-02-22T05:00:24;6.60;99.90
28171;DHT22;15458;53.346;-1.688;2023-02-22T05:02:50;6.50;99.90
28171;DHT22;15458;53.346;-1.688;2023-02-22T05:05:20;6.50;99.90
28171;DHT22;15458;53.346;-1.688;2023-02-22T05:07:47;6.50;99.90
28171;DHT22;15458;53.346;-1.688;2023-02-22T05:10:13;6.50;99.90
28171;DHT22;15458;53.346;-1.688;2023-02-22T05:12:39;6.50;99.90
28171;DHT22;15458;53.346;-1.688;2023-02-22T05:15:06;6.40;99.90
28171;DHT22;15458;53.346;-1.688;2023-02-22T05:17:33;6.50;99.90
28171;DHT22;15458;53.346;-1.688;2023-02-22T05:19:59;6.40;99.90
28171;DHT22;15458;53.346;-1.688;2023-02-22T05:22:25;6.50;99.90
28171;DHT22;15458;53.346;-1.688;2023-02-22T05:24:51;6.50;99.90
28171;DHT22;15458;53.346;-1.688;2023-02-22T05:27:17;6.40;99.90
28171;DHT22;15458;53.346;-1.688;2023-02-22T05:29:43;6.40;99.90
28171;DHT22;15458;53.346;-1.688;2023-02-22T05:32:09;6.40;99.90
28171;DHT22;15458;53.346;-1.688;2023-02-22T05:34:37;6.40;99.90
28171;DHT22;15458;53.346;-1.688;2023-02-22T05:37:03;6.40;99.90
28171;DHT22;15458;53.346;-1.688;2023-02-22T05:39:30;6.40;99.90
28171;DHT22;15458;53.346;-1.688;2023-02-22T05:41:56;6.40;99.90
28171;DHT22;15458;53.346;-1.688;2023-02-22T05:44:22;6.40;99.90
28171;DHT22;15458;53.346;-1.688;2023-02-22T05:46:48;6.40;99.90
28171;DHT22;15458;53.346;-1.688;2023-02-22T05:49:13;6.40;99.90
28171;DHT22;15458;53.346;-1.688;2023-02-22T05:51:39;6.40;99.90
28171;DHT22;15458;53.346;-1.688;2023-02-22T05:54:05;6.40;99.90
28171;DHT22;15458;53.346;-1.688;2023-02-22T05:56:30;6.40;99.90
28171;DHT22;15458;53.346;-1.688;2023-02-22T05:58:56;6.50;99.90
28171;DHT22;15458;53.346;-1.688;2023-02-22T06:01:23;6.50;99.90
28171;DHT22;15458;53.346;-1.688;2023-02-22T06:03:50;6.50;99.90
28171;DHT22;15458;53.346;-1.688;2023-02-22T06:06:16;6.50;99.90
28171;DHT22;15458;53.346;-1.688;2023-02-22T06:08:42;6.50;99.90
28171;DHT22;15458;53.346;-1.688;2023-02-22T06:11:08;6.50;99.90
28171;DHT22;15458;53.346;-1.688;2023-02-22T06:13:35;6.60;99.90
28171;DHT22;15458;53.346;-1.688;2023-02-22T06:16:01;6.60;99.90
28171;DHT22;15458;53.346;-1.688;2023-02-22T06:18:27;6.60;99.90
28171;DHT22;15458;53.346;-1.688;2023-02-22T06:20:56;6.60;99.90
28171;DHT22;15458;53.346;-1.688;2023-02-22T06:23:21;6.60;99.90
28171;DHT22;15458;53.346;-1.688;2023-02-22T06:25:47;6.60;99.90
28171;DHT22;15458;53.346;-1.688;2023-02-22T06:28:13;6.60;99.90
28171;DHT22;15458;53.346;-1.688;2023-02-22T06:30:40;6.50;99.90
28171;DHT22;15458;53.346;-1.688;2023-02-22T06:33:08;6.50;99.90
28171;DHT22;15458;53.346;-1.688;2023-02-22T06:35:33;6.60;99.90
28171;DHT22;15458;53.346;-1.688;2023-02-22T06:37:59;6.60;99.90
28171;DHT22;15458;53.346;-1.688;2023-02-22T06:40:25;6.60;99.90
28171;DHT22;15458;53.346;-1.688;2023-02-22T06:42:55;6.60;99.90
28171;DHT22;15458;53.346;-1.688;2023-02-22T06:45:21;6.60;99.90
28171;DHT22;15458;53.346;-1.688;2023-02-22T06:47:47;6.60;99.90
28171;DHT22;15458;53.346;-1.688;2023-02-22T06:50:24;6.60;99.90
28171;DHT22;15458;53.346;-1.688;2023-02-22T06:52:51;6.60;99.90
28171;DHT22;15458;53.346;-1.688;2023-02-22T06:55:19;6.60;99.90
28171;DHT22;15458;53.346;-1.688;2023-02-22T06:57:44;6.60;99.90
28171;DHT22;15458;53.346;-1.688;2023-02-22T07:00:11;6.60;99.90
28171;DHT22;15458;53.346;-1.688;2023-02-22T07:02:36;6.60;99.90
28171;DHT22;15458;53.346;-1.688;2023-02-22T07:05:03;6.60;99.90
28171;DHT22;15458;53.346;-1.688;2023-02-22T07:07:28;6.60;99.90
28171;DHT22;15458;53.346;-1.688;2023-02-22T07:09:54;6.60;99.90
28171;DHT22;15458;53.346;-1.688;2023-02-22T07:12:20;6.60;99.90
28171;DHT22;15458;53.346;-1.688;2023-02-22T07:14:45;6.60;99.90
28171;DHT22;15458;53.346;-1.688;2023-02-22T07:17:11;6.60;99.90
28171;DHT22;15458;53.346;-1.688;2023-02-22T07:19:37;6.60;99.90
28171;DHT22;15458;53.346;-1.688;2023-02-22T07:22:03;6.60;99.90
28171;DHT22;15458;53.346;-1.688;2023-02-22T07:24:28;6.50;99.90
28171;DHT22;15458;53.346;-1.688;2023-02-22T07:26:54;6.60;99.90
28171;DHT22;15458;53.346;-1.688;2023-02-22T07:29:20;6.60;99.90
28171;DHT22;15458;53.346;-1.688;2023-02-22T07:31:47;6.60;99.90
28171;DHT22;15458;53.346;-1.688;2023-02-22T07:34:12;6.60;99.90
28171;DHT22;15458;53.346;-1.688;2023-02-22T07:36:38;6.60;99.90
28171;DHT22;15458;53.346;-1.688;2023-02-22T07:39:04;6.50;99.90
28171;DHT22;15458;53.346;-1.688;2023-02-22T07:41:33;6.60;99.90
28171;DHT22;15458;53.346;-1.688;2023-02-22T07:43:59;6.50;99.90
28171;DHT22;15458;53.346;-1.688;2023-02-22T07:46:24;6.60;99.90
28171;DHT22;15458;53.346;-1.688;2023-02-22T07:48:53;6.60;99.90
28171;DHT22;15458;53.346;-1.688;2023-02-22T07:51:18;6.60;99.90
28171;DHT22;15458;53.346;-1.688;2023-02-22T07:53:45;6.60;99.90
28171;DHT22;15458;53.346;-1.688;2023-02-22T07:56:11;6.60;99.90
28171;DHT22;15458;53.346;-1.688;2023-02-22T07:58:36;6.60;99.90
28171;DHT22;15458;53.346;-1.688;2023-02-22T08:01:03;6.60;99.90
28171;DHT22;15458;53.346;-1.688;2023-02-22T08:03:31;6.60;99.90
28171;DHT22;15458;53.346;-1.688;2023-02-22T08:05:58;6.70;99.90
28171;DHT22;15458;53.346;-1.688;2023-02-22T08:08:25;6.70;99.90
28171;DHT22;15458;53.346;-1.688;2023-02-22T08:10:51;6.70;99.90
28171;DHT22;15458;53.346;-1.688;2023-02-22T08:13:18;6.70;99.90
28171;DHT22;15458;53.346;-1.688;2023-02-22T08:15:44;6.70;99.90
28171;DHT22;15458;53.346;-1.688;2023-02-22T08:18:16;6.80;99.90
28171;DHT22;15458;53.346;-1.688;2023-02-22T08:20:44;6.80;99.90
28171;DHT22;15458;53.346;-1.688;2023-02-22T08:23:11;6.80;99.90
28171;DHT22;15458;53.346;-1.688;2023-02-22T08:25:37;6.80;99.90
28171;DHT22;15458;53.346;-1.688;2023-02-22T08:28:08;6.90;99.90
28171;DHT22;15458;53.346;-1.688;2023-02-22T08:30:36;6.90;99.90
28171;DHT22;15458;53.346;-1.688;2023-02-22T08:33:02;6.90;99.90
28171;DHT22;15458;53.346;-1.688;2023-02-22T08:35:30;6.90;99.90
28171;DHT22;15458;53.346;-1.688;2023-02-22T08:38:06;7.00;99.90
28171;DHT22;15458;53.346;-1.688;2023-02-22T08:40:34;7.00;99.90
28171;DHT22;15458;53.346;-1.688;2023-02-22T08:43:00;7.00;99.90
28171;DHT22;15458;53.346;-1.688;2023-02-22T08:45:27;7.00;99.90
28171;DHT22;15458;53.346;-1.688;2023-02-22T08:47:53;7.10;99.90
28171;DHT22;15458;53.346;-1.688;2023-02-22T08:50:25;7.00;99.90
28171;DHT22;15458;53.346;-1.688;2023-02-22T08:52:52;7.10;99.90
28171;DHT22;15458;53.346;-1.688;2023-02-22T08:55:20;7.10;99.90
28171;DHT22;15458;53.346;-1.688;2023-02-22T08:57:46;7.10;99.90
28171;DHT22;15458;53.346;-1.688;2023-02-22T09:00:13;7.10;99.90
28171;DHT22;15458;53.346;-1.688;2023-02-22T09:02:40;7.10;99.90
28171;DHT22;15458;53.346;-1.688;2023-02-22T09:05:06;7.10;99.90
28171;DHT22;15458;53.346;-1.688;2023-02-22T09:07:32;7.10;99.90
28171;DHT22;15458;53.346;-1.688;2023-02-22T09:09:57;7.00;99.90
28171;DHT22;15458;53.346;-1.688;2023-02-22T09:12:23;7.00;99.90
28171;DHT22;15458;53.346;-1.688;2023-02-22T09:14:49;7.00;99.90
28171;DHT22;15458;53.346;-1.688;2023-02-22T09:17:14;7.00;99.90
28171;DHT22;15458;53.346;-1.688;2023-02-22T09:19:40;7.00;99.90
28171;DHT22;15458;53.346;-1.688;2023-02-22T09:22:06;6.90;99.90
28171;DHT22;15458;53.346;-1.688;2023-02-22T09:24:31;6.90;99.90
28171;DHT22;15458;53.346;-1.688;2023-02-22T09:26:57;6.90;99.90
28171;DHT22;15458;53.346;-1.688;2023-02-22T09:29:25;6.90;99.90
28171;DHT22;15458;53.346;-1.688;2023-02-22T09:31:53;6.90;99.90
28171;DHT22;15458;53.346;-1.688;2023-02-22T09:34:24;6.90;99.90
28171;DHT22;15458;53.346;-1.688;2023-02-22T09:36:56;6.90;99.90
28171;DHT22;15458;53.346;-1.688;2023-02-22T09:39:23;6.90;99.90
28171;DHT22;15458;53.346;-1.688;2023-02-22T09:41:55;6.90;99.90
28171;DHT22;15458;53.346;-1.688;2023-02-22T09:44:51;6.90;99.90
28171;DHT22;15458;53.346;-1.688;2023-02-22T09:47:31;7.00;99.90
28171;DHT22;15458;53.346;-1.688;2023-02-22T09:50:20;7.10;99.90
28171;DHT22;15458;53.346;-1.688;2023-02-22T09:53:07;7.10;99.90
28171;DHT22;15458;53.346;-1.688;2023-02-22T09:55:45;7.10;99.90
28171;DHT22;15458;53.346;-1.688;2023-02-22T09:58:35;7.20;99.90
28171;DHT22;15458;53.346;-1.688;2023-02-22T10:01:35;7.20;99.90
28171;DHT22;15458;53.346;-1.688;2023-02-22T10:04:35;7.20;99.90
28171;DHT22;15458;53.346;-1.688;2023-02-22T10:09:41;7.20;99.90
28171;DHT22;15458;53.346;-1.688;2023-02-22T10:12:43;7.20;99.90
28171;DHT22;15458;53.346;-1.688;2023-02-22T10:15:15;7.20;99.90
28171;DHT22;15458;53.346;-1.688;2023-02-22T10:18:02;7.10;99.90
28171;DHT22;15458;53.346;-1.688;2023-02-22T10:21:05;7.10;99.90
28171;DHT22;15458;53.346;-1.688;2023-02-22T10:24:04;7.10;99.90
28171;DHT22;15458;53.346;-1.688;2023-02-22T10:26:35;7.20;99.90
28171;DHT22;15458;53.346;-1.688;2023-02-22T10:29:31;7.20;99.90
28171;DHT22;15458;53.346;-1.688;2023-02-22T10:32:03;7.30;99.90
28171;DHT22;15458;53.346;-1.688;2023-02-22T10:34:37;7.30;99.90
28171;DHT22;15458;53.346;-1.688;2023-02-22T10:37:26;7.30;99.90
28171;DHT22;15458;53.346;-1.688;2023-02-22T10:40:18;7.40;99.90
28171;DHT22;15458;53.346;-1.688;2023-02-22T10:42:49;7.50;99.90
28171;DHT22;15458;53.346;-1.688;2023-02-22T10:45:20;7.60;99.90
28171;DHT22;15458;53.346;-1.688;2023-02-22T10:47:47;7.70;99.90
28171;DHT22;15458;53.346;-1.688;2023-02-22T10:50:14;7.80;99.90
28171;DHT22;15458;53.346;-1.688;2023-02-22T10:52:40;7.90;99.90
28171;DHT22;15458;53.346;-1.688;2023-02-22T10:55:10;7.90;99.90
28171;DHT22;15458;53.346;-1.688;2023-02-22T10:57:37;7.90;99.90
28171;DHT22;15458;53.346;-1.688;2023-02-22T11:00:37;7.80;99.90
28171;DHT22;15458;53.346;-1.688;2023-02-22T11:03:20;7.70;99.90
28171;DHT22;15458;53.346;-1.688;2023-02-22T11:05:47;7.70;99.90
28171;DHT22;15458;53.346;-1.688;2023-02-22T11:10:45;7.60;99.90
28171;DHT22;15458;53.346;-1.688;2023-02-22T11:15:52;7.80;99.90
28171;DHT22;15458;53.346;-1.688;2023-02-22T11:18:31;7.90;99.90
28171;DHT22;15458;53.346;-1.688;2023-02-22T11:21:20;8.00;99.90
28171;DHT22;15458;53.346;-1.688;2023-02-22T11:23:47;8.10;99.90
28171;DHT22;15458;53.346;-1.688;2023-02-22T11:26:17;8.20;99.90
28171;DHT22;15458;53.346;-1.688;2023-02-22T11:28:49;8.20;99.90
28171;DHT22;15458;53.346;-1.688;2023-02-22T11:31:26;8.20;99.90
28171;DHT22;15458;53.346;-1.688;2023-02-22T11:33:56;8.30;99.90
28171;DHT22;15458;53.346;-1.688;2023-02-22T11:36:37;8.40;99.90
28171;DHT22;15458;53.346;-1.688;2023-02-22T11:41:49;8.80;99.90
28171;DHT22;15458;53.346;-1.688;2023-02-22T11:46:48;9.10;99.90
28171;DHT22;15458;53.346;-1.688;2023-02-22T11:49:15;9.10;99.90
28171;DHT22;15458;53.346;-1.688;2023-02-22T11:52:06;9.10;99.90
28171;DHT22;15458;53.346;-1.688;2023-02-22T12:00:14;8.90;99.90
28171;DHT22;15458;53.346;-1.688;2023-02-22T12:06:10;9.40;99.90
28171;DHT22;15458;53.346;-1.688;2023-02-22T12:19:56;10.00;99.90
28171;DHT22;15458;53.346;-1.688;2023-02-22T12:22:31;9.80;99.90
28171;DHT22;15458;53.346;-1.688;2023-02-22T12:25:19;9.70;99.90
28171;DHT22;15458;53.346;-1.688;2023-02-22T12:27:49;9.40;99.90
28171;DHT22;15458;53.346;-1.688;2023-02-22T12:30:20;9.20;99.90
28171;DHT22;15458;53.346;-1.688;2023-02-22T12:33:01;9.20;99.90
28171;DHT22;15458;53.346;-1.688;2023-02-22T12:35:39;9.10;99.90
28171;DHT22;15458;53.346;-1.688;2023-02-22T12:43:29;9.10;99.90
28171;DHT22;15458;53.346;-1.688;2023-02-22T12:48:44;8.90;99.90
28171;DHT22;15458;53.346;-1.688;2023-02-22T12:59:31;8.90;99.90
28171;DHT22;15458;53.346;-1.688;2023-02-22T13:02:19;9.00;99.90
28171;DHT22;15458;53.346;-1.688;2023-02-22T13:04:47;9.00;99.90
28171;DHT22;15458;53.346;-1.688;2023-02-22T13:13:12;8.90;99.90
28171;DHT22;15458;53.346;-1.688;2023-02-22T13:16:03;8.90;99.90
28171;DHT22;15458;53.346;-1.688;2023-02-22T13:18:43;9.00;99.90
28171;DHT22;15458;53.346;-1.688;2023-02-22T13:29:24;9.70;99.90
28171;DHT22;15458;53.346;-1.688;2023-02-22T13:40:27;11.20;99.90
28171;DHT22;15458;53.346;-1.688;2023-02-22T13:49:11;10.80;97.90
28171;DHT22;15458;53.346;-1.688;2023-02-22T13:54:26;10.60;99.60
28171;DHT22;15458;53.346;-1.688;2023-02-22T13:56:55;10.80;99.40
28171;DHT22;15458;53.346;-1.688;2023-02-22T13:59:23;10.90;98.80
28171;DHT22;15458;53.346;-1.688;2023-02-22T14:01:50;11.10;98.40
28171;DHT22;15458;53.346;-1.688;2023-02-22T14:06:51;11.10;97.50
28171;DHT22;15458;53.346;-1.688;2023-02-22T14:09:42;10.90;97.00
28171;DHT22;15458;53.346;-1.688;2023-02-22T14:15:21;10.30;97.20
28171;DHT22;15458;53.346;-1.688;2023-02-22T14:17:49;10.10;97.70
28171;DHT22;15458;53.346;-1.688;2023-02-22T14:20:42;10.10;98.20
28171;DHT22;15458;53.346;-1.688;2023-02-22T14:28:51;9.70;98.80
28171;DHT22;15458;53.346;-1.688;2023-02-22T14:31:21;9.60;99.00
28171;DHT22;15458;53.346;-1.688;2023-02-22T14:34:09;9.60;99.40
28171;DHT22;15458;53.346;-1.688;2023-02-22T14:36:43;9.50;99.40
28171;DHT22;15458;53.346;-1.688;2023-02-22T14:44:49;9.40;99.90
28171;DHT22;15458;53.346;-1.688;2023-02-22T14:47:23;9.40;99.90
28171;DHT22;15458;53.346;-1.688;2023-02-22T14:52:39;9.30;99.90
28171;DHT22;15458;53.346;-1.688;2023-02-22T14:55:16;9.30;99.90
28171;DHT22;15458;53.346;-1.688;2023-02-22T14:57:57;9.40;99.90
28171;DHT22;15458;53.346;-1.688;2023-02-22T15:00:35;9.80;99.90
28171;DHT22;15458;53.346;-1.688;2023-02-22T15:03:02;10.20;99.90
28171;DHT22;15458;53.346;-1.688;2023-02-22T15:05:33;10.50;99.80
28171;DHT22;15458;53.346;-1.688;2023-02-22T15:08:01;10.60;99.30
28171;DHT22;15458;53.346;-1.688;2023-02-22T15:13:20;10.80;98.00
28171;DHT22;15458;53.346;-1.688;2023-02-22T15:15:59;10.70;97.60
28171;DHT22;15458;53.346;-1.688;2023-02-22T15:18:56;10.50;97.60
28171;DHT22;15458;53.346;-1.688;2023-02-22T15:21:25;10.30;97.80
28171;DHT22;15458;53.346;-1.688;2023-02-22T15:24:02;10.20;97.90
28171;DHT22;15458;53.346;-1.688;2023-02-22T15:26:41;10.10;98.00
28171;DHT22;15458;53.346;-1.688;2023-02-22T15:29:23;9.90;98.20
28171;DHT22;15458;53.346;-1.688;2023-02-22T15:31:50;9.70;98.70
28171;DHT22;15458;53.346;-1.688;2023-02-22T15:34:19;9.40;99.20
28171;DHT22;15458;53.346;-1.688;2023-02-22T15:36:50;9.20;99.90
28171;DHT22;15458;53.346;-1.688;2023-02-22T15:39:31;9.00;99.90
28171;DHT22;15458;53.346;-1.688;2023-02-22T15:42:13;8.90;99.90
28171;DHT22;15458;53.346;-1.688;2023-02-22T15:44:51;8.70;99.90
28171;DHT22;15458;53.346;-1.688;2023-02-22T15:47:24;8.60;99.90
28171;DHT22;15458;53.346;-1.688;2023-02-22T15:55:22;8.50;99.90
28171;DHT22;15458;53.346;-1.688;2023-02-22T15:57:49;8.50;99.90
28171;DHT22;15458;53.346;-1.688;2023-02-22T16:00:30;8.60;99.90
28171;DHT22;15458;53.346;-1.688;2023-02-22T16:03:06;8.90;99.90
28171;DHT22;15458;53.346;-1.688;2023-02-22T16:05:43;9.10;99.90
28171;DHT22;15458;53.346;-1.688;2023-02-22T16:08:16;9.10;99.90
28171;DHT22;15458;53.346;-1.688;2023-02-22T16:10:50;9.10;99.90
28171;DHT22;15458;53.346;-1.688;2023-02-22T16:13:21;9.10;99.90
28171;DHT22;15458;53.346;-1.688;2023-02-22T16:18:45;8.80;99.90
28171;DHT22;15458;53.346;-1.688;2023-02-22T16:21:13;8.70;99.90
28171;DHT22;15458;53.346;-1.688;2023-02-22T16:23:54;8.70;99.90
28171;DHT22;15458;53.346;-1.688;2023-02-22T16:26:33;8.50;99.90
28171;DHT22;15458;53.346;-1.688;2023-02-22T16:29:03;8.40;99.90
28171;DHT22;15458;53.346;-1.688;2023-02-22T16:31:32;8.20;99.90
28171;DHT22;15458;53.346;-1.688;2023-02-22T16:33:59;8.10;99.90
28171;DHT22;15458;53.346;-1.688;2023-02-22T16:36:39;8.00;99.90
28171;DHT22;15458;53.346;-1.688;2023-02-22T16:39:07;7.90;99.90
28171;DHT22;15458;53.346;-1.688;2023-02-22T16:41:34;7.90;99.90
28171;DHT22;15458;53.346;-1.688;2023-02-22T16:44:00;7.80;99.90
28171;DHT22;15458;53.346;-1.688;2023-02-22T16:46:26;7.80;99.90
28171;DHT22;15458;53.346;-1.688;2023-02-22T16:48:51;7.80;99.90
28171;DHT22;15458;53.346;-1.688;2023-02-22T16:51:24;7.70;99.90
28171;DHT22;15458;53.346;-1.688;2023-02-22T16:53:53;7.60;99.90
28171;DHT22;15458;53.346;-1.688;2023-02-22T16:56:22;7.50;99.90
28171;DHT22;15458;53.346;-1.688;2023-02-22T16:58:49;7.40;99.90
28171;DHT22;15458;53.346;-1.688;2023-02-22T17:01:17;7.30;99.90
28171;DHT22;15458;53.346;-1.688;2023-02-22T17:03:43;7.20;99.90
28171;DHT22;15458;53.346;-1.688;2023-02-22T17:06:09;7.20;99.90
28171;DHT22;15458;53.346;-1.688;2023-02-22T17:08:39;7.10;99.90
28171;DHT22;15458;53.346;-1.688;2023-02-22T17:11:09;7.10;99.90
28171;DHT22;15458;53.346;-1.688;2023-02-22T17:13:35;7.00;99.90
28171;DHT22;15458;53.346;-1.688;2023-02-22T17:16:02;7.00;99.90
28171;DHT22;15458;53.346;-1.688;2023-02-22T17:18:27;6.90;99.90
28171;DHT22;15458;53.346;-1.688;2023-02-22T17:20:59;6.90;99.90
28171;DHT22;15458;53.346;-1.688;2023-02-22T17:23:24;6.80;99.90
28171;DHT22;15458;53.346;-1.688;2023-02-22T17:26:00;6.80;99.90
28171;DHT22;15458;53.346;-1.688;2023-02-22T17:28:29;6.70;99.90
28171;DHT22;15458;53.346;-1.688;2023-02-22T17:30:57;6.60;99.90
28171;DHT22;15458;53.346;-1.688;2023-02-22T17:33:27;6.60;99.90
28171;DHT22;15458;53.346;-1.688;2023-02-22T17:35:54;6.50;99.90
28171;DHT22;15458;53.346;-1.688;2023-02-22T17:38:20;6.50;99.90
28171;DHT22;15458;53.346;-1.688;2023-02-22T17:40:47;6.50;99.90
28171;DHT22;15458;53.346;-1.688;2023-02-22T17:43:14;6.50;99.90
28171;DHT22;15458;53.346;-1.688;2023-02-22T17:45:40;6.40;99.90
28171;DHT22;15458;53.346;-1.688;2023-02-22T17:48:07;6.30;99.90
28171;DHT22;15458;53.346;-1.688;2023-02-22T17:50:36;6.30;99.90
28171;DHT22;15458;53.346;-1.688;2023-02-22T17:53:02;6.30;99.90
28171;DHT22;15458;53.346;-1.688;2023-02-22T17:55:28;6.20;99.90
28171;DHT22;15458;53.346;-1.688;2023-02-22T17:57:55;6.20;99.90
28171;DHT22;15458;53.346;-1.688;2023-02-22T18:00:27;6.20;99.90
28171;DHT22;15458;53.346;-1.688;2023-02-22T18:05:29;6.10;99.90
28171;DHT22;15458;53.346;-1.688;2023-02-22T18:07:57;6.10;99.90
28171;DHT22;15458;53.346;-1.688;2023-02-22T18:10:23;6.10;99.90
28171;DHT22;15458;53.346;-1.688;2023-02-22T18:12:51;6.00;99.90
28171;DHT22;15458;53.346;-1.688;2023-02-22T18:15:18;6.00;99.90
28171;DHT22;15458;53.346;-1.688;2023-02-22T18:17:44;6.00;99.90
28171;DHT22;15458;53.346;-1.688;2023-02-22T18:20:12;6.00;99.90
28171;DHT22;15458;53.346;-1.688;2023-02-22T18:22:43;6.00;99.90
28171;DHT22;15458;53.346;-1.688;2023-02-22T18:25:10;5.90;99.90
28171;DHT22;15458;53.346;-1.688;2023-02-22T18:27:36;5.90;99.90